Time;durP1;ratioP1;P1;durP2;ratioP2;P2;SDS_P1;SDS_P2;PMS_P1;PMS_P2;Temp;Humidity;BMP_temperature;BMP_pressure;BME280_temperature;BME280_humidity;BME280_pressure;Samples;Min_cycle;Max_cycle;Signal;HPM_P1;HPM_P2
2021/01/10 00:00:24;;;;;;;10.70;7.20;;;;;;;;;;5032826;28;20111;-74
2021/01/10 00:02:50;;;;;;;10.57;6.78;;;;;;;;;;5032772;28;20041;-73
2021/01/10 00:05:25;;;;;;;10.80;7.57;;;;;;;;;;5032847;28;20039;-73
2021/01/10 00:07:51;;;;;;;10.60;7.53;;;;;;;;;;5032845;28;20036;-72
2021/01/10 00:10:18;;;;;;;11.60;8.10;;;;;;;;;;5032814;28;20064;-73
2021/01/10 00:12:45;;;;;;;11.77;8.43;;;;;;;;;;5032676;28;20026;-73
2021/01/10 00:15:12;;;;;;;15.05;9.23;;;;;;;;;;5032737;28;20029;-73
2021/01/10 00:17:39;;;;;;;13.43;9.98;;;;;;;;;;5032578;28;20494;-74
2021/01/10 00:20:06;;;;;;;14.52;10.52;;;;;;;;;;5047863;28;20515;-74
2021/01/10 00:22:32;;;;;;;14.98;10.90;;;;;;;;;;5032413;28;20072;-73
2021/01/10 00:24:58;;;;;;;17.30;12.13;;;;;;;;;;5032730;28;20021;-72
2021/01/10 00:27:24;;;;;;;17.02;11.35;;;;;;;;;;5032602;28;20132;-73
2021/01/10 00:29:51;;;;;;;17.00;12.48;;;;;;;;;;5047740;28;20014;-72
2021/01/10 00:32:17;;;;;;;18.48;13.43;;;;;;;;;;5047617;28;20029;-76
2021/01/10 00:34:43;;;;;;;22.27;13.63;;;;;;;;;;5032309;28;20028;-72
2021/01/10 00:37:10;;;;;;;20.75;14.30;;;;;;;;;;5032203;28;20164;-74
2021/01/10 00:39:36;;;;;;;20.98;15.07;;;;;;;;;;5032569;28;20033;-72
2021/01/10 00:42:06;;;;;;;20.35;14.38;;;;;;;;;;5032348;28;20122;-74
2021/01/10 00:44:32;;;;;;;22.83;15.35;;;;;;;;;;5032234;28;20022;-72
2021/01/10 00:46:58;;;;;;;22.67;15.35;;;;;;;;;;5047573;28;20017;-73
2021/01/10 00:49:24;;;;;;;21.08;15.30;;;;;;;;;;5032442;28;20021;-73
2021/01/10 00:51:52;;;;;;;24.27;16.77;;;;;;;;;;5034840;28;20028;-74
2021/01/10 00:54:18;;;;;;;23.60;17.90;;;;;;;;;;5051326;28;20021;-77
2021/01/10 00:56:44;;;;;;;23.75;17.27;;;;;;;;;;5051238;28;20120;-73
2021/01/10 00:59:10;;;;;;;23.63;17.33;;;;;;;;;;5050970;28;20036;-76
2021/01/10 01:01:36;;;;;;;23.95;17.05;;;;;;;;;;5035566;28;20064;-72
2021/01/10 01:04:02;;;;;;;26.30;18.42;;;;;;;;;;5035817;28;20021;-73
2021/01/10 01:06:28;;;;;;;25.38;18.73;;;;;;;;;;5035829;28;20033;-77
2021/01/10 01:08:54;;;;;;;26.05;17.80;;;;;;;;;;5035831;28;20022;-73
2021/01/10 01:11:27;;;;;;;25.83;18.77;;;;;;;;;;5051043;28;20025;-73
2021/01/10 01:13:53;;;;;;;24.27;18.25;;;;;;;;;;5035437;28;20029;-72
2021/01/10 01:16:19;;;;;;;26.55;18.90;;;;;;;;;;5050731;28;20431;-74
2021/01/10 01:18:45;;;;;;;23.52;17.83;;;;;;;;;;5050778;28;20456;-73
2021/01/10 01:21:14;;;;;;;26.23;19.45;;;;;;;;;;5035476;28;20057;-73
2021/01/10 01:23:40;;;;;;;27.98;19.23;;;;;;;;;;5035378;28;20033;-73
2021/01/10 01:26:06;;;;;;;26.25;19.35;;;;;;;;;;5035252;28;20119;-76
2021/01/10 01:28:32;;;;;;;25.55;18.52;;;;;;;;;;5050614;28;20381;-72
2021/01/10 01:30:58;;;;;;;28.55;19.63;;;;;;;;;;5035275;28;20552;-73
2021/01/10 01:33:24;;;;;;;26.13;18.42;;;;;;;;;;5050524;28;20489;-76
2021/01/10 01:35:50;;;;;;;28.90;19.77;;;;;;;;;;5050553;28;20025;-77
2021/01/10 01:38:16;;;;;;;25.98;19.20;;;;;;;;;;5035015;28;20489;-75
2021/01/10 01:40:42;;;;;;;27.42;19.45;;;;;;;;;;5035200;28;20525;-73
2021/01/10 01:43:08;;;;;;;26.45;19.33;;;;;;;;;;5050309;28;20075;-72
2021/01/10 01:45:34;;;;;;;27.27;19.45;;;;;;;;;;5035087;28;20029;-73
2021/01/10 01:48:01;;;;;;;26.95;18.85;;;;;;;;;;5034940;28;20025;-78
2021/01/10 01:50:27;;;;;;;26.45;19.83;;;;;;;;;;5035018;28;20068;-72
2021/01/10 01:52:53;;;;;;;30.17;20.50;;;;;;;;;;5034886;28;20018;-76
2021/01/10 01:55:20;;;;;;;26.75;19.85;;;;;;;;;;5050233;28;20025;-77
2021/01/10 01:57:46;;;;;;;25.60;19.60;;;;;;;;;;5034746;28;20025;-73
2021/01/10 02:00:12;;;;;;;28.42;20.10;;;;;;;;;;5034589;28;20104;-73
2021/01/10 02:02:38;;;;;;;27.15;20.13;;;;;;;;;;5034350;28;20519;-73
2021/01/10 02:05:09;;;;;;;28.35;20.10;;;;;;;;;;5050023;28;20026;-76
2021/01/10 02:08:01;;;;;;;28.92;20.33;;;;;;;;;;5034638;28;20488;-77
2021/01/10 02:10:30;;;;;;;29.85;21.35;;;;;;;;;;5034163;28;20034;-72
2021/01/10 02:13:01;;;;;;;26.33;20.10;;;;;;;;;;5049880;28;20033;-73
2021/01/10 02:15:29;;;;;;;28.95;20.77;;;;;;;;;;5034465;28;20024;-73
2021/01/10 02:17:56;;;;;;;29.70;21.42;;;;;;;;;;5049860;28;20025;-73
2021/01/10 02:20:22;;;;;;;28.10;19.70;;;;;;;;;;5034398;28;20018;-77
2021/01/10 02:22:52;;;;;;;27.52;19.90;;;;;;;;;;5034245;28;20116;-76
2021/01/10 02:25:19;;;;;;;27.88;20.15;;;;;;;;;;5034220;28;20507;-77
2021/01/10 02:27:45;;;;;;;27.15;20.08;;;;;;;;;;5049565;28;20452;-76
2021/01/10 02:30:12;;;;;;;25.73;19.33;;;;;;;;;;5034321;28;20024;-73
2021/01/10 02:32:40;;;;;;;29.02;19.88;;;;;;;;;;5049453;28;20026;-72
2021/01/10 02:35:08;;;;;;;26.83;18.85;;;;;;;;;;5049340;28;20032;-77
2021/01/10 02:37:37;;;;;;;25.05;18.25;;;;;;;;;;5049289;28;20130;-73
2021/01/10 02:40:12;;;;;;;23.08;16.55;;;;;;;;;;5034119;28;20389;-77
2021/01/10 02:42:42;;;;;;;22.73;16.95;;;;;;;;;;5049080;28;20448;-73
2021/01/10 02:45:17;;;;;;;24.10;17.48;;;;;;;;;;5033796;28;20428;-76
2021/01/10 02:47:43;;;;;;;21.10;16.50;;;;;;;;;;5049097;28;20449;-74
2021/01/10 02:50:10;;;;;;;24.15;16.58;;;;;;;;;;5033876;28;20084;-77
2021/01/10 02:52:36;;;;;;;21.52;16.20;;;;;;;;;;5033815;28;20029;-74
2021/01/10 02:55:03;;;;;;;22.48;16.90;;;;;;;;;;5049112;28;20499;-73
2021/01/10 02:57:36;;;;;;;21.88;15.45;;;;;;;;;;5033805;28;20385;-77
2021/01/10 03:00:04;;;;;;;21.13;15.30;;;;;;;;;;5049057;28;20026;-73
2021/01/10 03:02:30;;;;;;;20.77;15.25;;;;;;;;;;5048917;28;20045;-76
2021/01/10 03:04:57;;;;;;;21.35;15.20;;;;;;;;;;5033654;28;20469;-77
2021/01/10 03:07:23;;;;;;;21.33;15.30;;;;;;;;;;5033495;28;20037;-77
2021/01/10 03:09:49;;;;;;;20.02;14.98;;;;;;;;;;5048641;28;20499;-76
2021/01/10 03:12:26;;;;;;;20.27;14.88;;;;;;;;;;5048610;28;20025;-73
2021/01/10 03:14:53;;;;;;;22.10;15.35;;;;;;;;;;5032765;28;20437;-77
2021/01/10 03:17:22;;;;;;;20.17;14.27;;;;;;;;;;5048426;28;20090;-73
2021/01/10 03:19:48;;;;;;;19.83;14.82;;;;;;;;;;5033165;28;20028;-77
2021/01/10 03:22:14;;;;;;;21.75;15.35;;;;;;;;;;5033042;28;20033;-73
2021/01/10 03:24:40;;;;;;;20.33;15.50;;;;;;;;;;5033420;28;20143;-73
2021/01/10 03:27:06;;;;;;;20.75;15.50;;;;;;;;;;5033291;28;20028;-76
2021/01/10 03:29:32;;;;;;;20.38;15.50;;;;;;;;;;5033212;28;20048;-77
2021/01/10 03:31:58;;;;;;;20.13;14.88;;;;;;;;;;5033201;28;20017;-73
2021/01/10 03:34:24;;;;;;;20.38;14.73;;;;;;;;;;5048396;28;20049;-73
2021/01/10 03:36:50;;;;;;;20.52;15.23;;;;;;;;;;5033011;28;20040;-73
2021/01/10 03:39:16;;;;;;;22.45;15.23;;;;;;;;;;5032963;28;20045;-73
2021/01/10 03:41:42;;;;;;;21.17;14.85;;;;;;;;;;5048298;28;20530;-74
2021/01/10 03:44:09;;;;;;;21.92;16.08;;;;;;;;;;5032896;28;20473;-73
2021/01/10 03:46:35;;;;;;;21.20;15.00;;;;;;;;;;5033091;28;20018;-74
2021/01/10 03:49:01;;;;;;;21.92;16.20;;;;;;;;;;5032900;28;20030;-76
2021/01/10 03:51:30;;;;;;;21.52;15.77;;;;;;;;;;5048153;28;20548;-76
2021/01/10 03:53:56;;;;;;;20.58;15.65;;;;;;;;;;5048401;28;20448;-76
2021/01/10 03:56:22;;;;;;;23.83;16.50;;;;;;;;;;5032887;28;20056;-73
2021/01/10 03:58:48;;;;;;;21.73;16.05;;;;;;;;;;5032885;28;20096;-74
2021/01/10 04:01:14;;;;;;;22.00;16.17;;;;;;;;;;5033058;28;20033;-75
2021/01/10 04:03:40;;;;;;;19.90;14.77;;;;;;;;;;5032670;28;20560;-77
2021/01/10 04:06:06;;;;;;;23.58;15.55;;;;;;;;;;5048009;28;20080;-73
2021/01/10 04:08:32;;;;;;;20.67;15.10;;;;;;;;;;5032872;28;20420;-77
2021/01/10 04:10:58;;;;;;;19.23;14.45;;;;;;;;;;5032855;28;20114;-75
2021/01/10 04:13:24;;;;;;;20.83;14.88;;;;;;;;;;5032686;28;20452;-74
2021/01/10 04:15:50;;;;;;;20.90;14.68;;;;;;;;;;5048092;28;20404;-73
2021/01/10 04:18:16;;;;;;;19.08;13.63;;;;;;;;;;5032682;28;20030;-74
2021/01/10 04:20:42;;;;;;;21.33;15.02;;;;;;;;;;5047888;28;20403;-77
2021/01/10 04:23:08;;;;;;;22.00;15.02;;;;;;;;;;5032541;28;20026;-73
2021/01/10 04:25:34;;;;;;;21.85;14.07;;;;;;;;;;5033139;28;20018;-77
2021/01/10 04:28:01;;;;;;;19.10;14.15;;;;;;;;;;5051879;28;20052;-77
2021/01/10 04:30:27;;;;;;;17.38;13.32;;;;;;;;;;5051815;28;20032;-74
2021/01/10 04:32:53;;;;;;;18.75;13.85;;;;;;;;;;5036422;28;20029;-73
2021/01/10 04:35:20;;;;;;;18.90;13.88;;;;;;;;;;5036341;28;20022;-73
2021/01/10 04:37:46;;;;;;;17.80;13.48;;;;;;;;;;5036207;28;20052;-77
2021/01/10 04:40:12;;;;;;;19.00;14.32;;;;;;;;;;5051809;28;20032;-77
2021/01/10 04:42:38;;;;;;;17.67;12.98;;;;;;;;;;5036061;28;20037;-77
2021/01/10 04:45:04;;;;;;;18.05;13.25;;;;;;;;;;5036256;28;20455;-77
2021/01/10 04:47:30;;;;;;;17.52;12.95;;;;;;;;;;5051407;28;20112;-77
2021/01/10 04:49:57;;;;;;;17.23;12.90;;;;;;;;;;5051442;28;20022;-77
2021/01/10 04:52:24;;;;;;;19.17;13.73;;;;;;;;;;5036083;28;20025;-78
2021/01/10 04:54:52;;;;;;;18.05;13.00;;;;;;;;;;5036102;28;20022;-77
2021/01/10 04:57:19;;;;;;;16.65;12.65;;;;;;;;;;5036011;28;20025;-73
2021/01/10 04:59:46;;;;;;;17.20;12.95;;;;;;;;;;5036004;28;20026;-77
2021/01/10 05:02:13;;;;;;;18.70;13.15;;;;;;;;;;5035769;28;20030;-75
2021/01/10 05:04:39;;;;;;;18.60;13.07;;;;;;;;;;5035923;28;20477;-76
2021/01/10 05:07:05;;;;;;;18.70;13.32;;;;;;;;;;5035878;28;20095;-73
2021/01/10 05:09:32;;;;;;;17.95;13.35;;;;;;;;;;5035878;28;20100;-77
2021/01/10 05:11:59;;;;;;;17.58;12.70;;;;;;;;;;5035616;28;20397;-74
2021/01/10 05:14:25;;;;;;;17.13;12.98;;;;;;;;;;5035740;28;20029;-76
2021/01/10 05:16:51;;;;;;;17.55;13.18;;;;;;;;;;5050993;28;20032;-77
2021/01/10 05:19:21;;;;;;;16.95;12.73;;;;;;;;;;5050850;28;20412;-74
2021/01/10 05:21:47;;;;;;;17.00;12.55;;;;;;;;;;5035406;28;20119;-77
2021/01/10 05:24:17;;;;;;;18.38;14.13;;;;;;;;;;5035539;28;20053;-77
2021/01/10 05:26:44;;;;;;;17.88;13.15;;;;;;;;;;5051117;28;20035;-77
2021/01/10 05:29:10;;;;;;;17.92;13.38;;;;;;;;;;5035384;28;20030;-76
2021/01/10 05:31:43;;;;;;;17.40;13.05;;;;;;;;;;5050681;28;20041;-77
2021/01/10 05:34:10;;;;;;;17.38;12.85;;;;;;;;;;5035065;28;20029;-77
2021/01/10 05:36:37;;;;;;;16.88;12.73;;;;;;;;;;5034478;28;20029;-74
2021/01/10 05:39:22;;;;;;;18.27;13.43;;;;;;;;;;5035050;28;20057;-76
2021/01/10 05:41:55;;;;;;;20.13;14.65;;;;;;;;;;5050389;28;20030;-76
2021/01/10 05:44:23;;;;;;;17.70;13.35;;;;;;;;;;5050444;28;20021;-77
2021/01/10 05:46:49;;;;;;;18.75;14.20;;;;;;;;;;5035011;28;20025;-75
2021/01/10 05:49:21;;;;;;;18.25;13.90;;;;;;;;;;5035081;28;20033;-75
2021/01/10 05:51:47;;;;;;;;;;;;;;;;;;5035460;28;20550;-74
2021/01/10 05:54:32;;;;;;;18.65;13.60;;;;;;;;;;5035007;28;19906;-74
2021/01/10 05:56:58;;;;;;;20.98;15.38;;;;;;;;;;5050304;28;20037;-77
2021/01/10 05:59:24;;;;;;;19.70;13.90;;;;;;;;;;5034723;28;20017;-77
2021/01/10 06:01:54;;;;;;;18.60;13.80;;;;;;;;;;5049974;28;20072;-75
2021/01/10 06:04:24;;;;;;;20.23;14.65;;;;;;;;;;5034639;28;20025;-77
2021/01/10 06:06:50;;;;;;;18.52;14.07;;;;;;;;;;5034610;28;20564;-77
2021/01/10 06:09:16;;;;;;;17.33;13.13;;;;;;;;;;5034497;28;20029;-76
2021/01/10 06:11:42;;;;;;;20.15;14.98;;;;;;;;;;5034497;28;20064;-76
2021/01/10 06:14:11;;;;;;;18.95;13.73;;;;;;;;;;5049871;28;20435;-78
2021/01/10 06:16:38;;;;;;;20.35;14.80;;;;;;;;;;5034612;28;20080;-76
2021/01/10 06:19:08;;;;;;;17.48;13.32;;;;;;;;;;5049679;28;20032;-74
2021/01/10 06:21:35;;;;;;;18.30;13.32;;;;;;;;;;5034191;28;20104;-77
2021/01/10 06:24:02;;;;;;;17.85;13.55;;;;;;;;;;5034334;28;20382;-78
2021/01/10 06:26:29;;;;;;;19.33;13.65;;;;;;;;;;5034310;28;20022;-74
2021/01/10 06:28:55;;;;;;;18.83;13.93;;;;;;;;;;5034412;28;20497;-78
2021/01/10 06:31:23;;;;;;;18.88;13.52;;;;;;;;;;5034296;28;20029;-78
2021/01/10 06:33:54;;;;;;;18.00;13.35;;;;;;;;;;5034071;28;20048;-75
2021/01/10 06:36:22;;;;;;;18.73;13.32;;;;;;;;;;5034360;28;20029;-76
2021/01/10 06:38:51;;;;;;;17.35;12.90;;;;;;;;;;5048934;28;20060;-74
2021/01/10 06:41:20;;;;;;;18.30;13.48;;;;;;;;;;5049107;28;20026;-78
2021/01/10 06:43:59;;;;;;;17.23;12.73;;;;;;;;;;5049146;28;20049;-74
2021/01/10 06:46:25;;;;;;;18.10;12.77;;;;;;;;;;5049292;28;20481;-76
2021/01/10 06:48:52;;;;;;;19.05;13.70;;;;;;;;;;5048393;28;20075;-75
2021/01/10 06:51:18;;;;;;;17.48;13.23;;;;;;;;;;5033943;28;20100;-76
2021/01/10 06:53:44;;;;;;;17.73;12.45;;;;;;;;;;5033806;28;20068;-78
2021/01/10 06:56:10;;;;;;;17.40;12.23;;;;;;;;;;5049189;28;20025;-78
2021/01/10 06:58:36;;;;;;;18.65;12.95;;;;;;;;;;5034003;28;20017;-75
2021/01/10 07:01:03;;;;;;;17.20;11.90;;;;;;;;;;5033638;28;20541;-78
2021/01/10 07:03:29;;;;;;;15.95;11.50;;;;;;;;;;5033604;28;20074;-77
2021/01/10 07:06:11;;;;;;;15.48;11.48;;;;;;;;;;5048876;28;20025;-75
2021/01/10 07:08:53;;;;;;;17.45;11.88;;;;;;;;;;5033496;28;20492;-77
2021/01/10 07:11:23;;;;;;;15.52;11.32;;;;;;;;;;5033455;28;20030;-76
2021/01/10 07:13:50;;;;;;;17.15;12.55;;;;;;;;;;5048682;28;20078;-77
2021/01/10 07:16:26;;;;;;;18.75;11.95;;;;;;;;;;5033412;28;20032;-74
2021/01/10 07:18:52;;;;;;;16.17;11.77;;;;;;;;;;5033363;28;20427;-78
2021/01/10 07:21:36;;;;;;;16.23;11.85;;;;;;;;;;5033409;28;20469;-77
2021/01/10 07:26:48;;;;;;;15.52;11.43;;;;;;;;;;5033207;28;20100;-77
2021/01/10 07:29:26;;;;;;;15.15;11.57;;;;;;;;;;5048463;28;20079;-77
2021/01/10 07:31:56;;;;;;;16.92;11.82;;;;;;;;;;5033008;28;20033;-77
2021/01/10 07:34:23;;;;;;;18.20;12.38;;;;;;;;;;5033199;28;20376;-74
2021/01/10 07:36:50;;;;;;;16.58;11.80;;;;;;;;;;5033088;28;20100;-75
2021/01/10 07:39:26;;;;;;;15.90;11.40;;;;;;;;;;5032735;28;20101;-75
2021/01/10 07:41:53;;;;;;;14.63;10.75;;;;;;;;;;5032679;28;20030;-74
2021/01/10 07:44:21;;;;;;;15.25;11.00;;;;;;;;;;5048461;28;20025;-75
2021/01/10 07:46:53;;;;;;;15.93;10.98;;;;;;;;;;5033038;28;20014;-76
2021/01/10 07:49:20;;;;;;;16.13;11.20;;;;;;;;;;5033058;28;20021;-78
2021/01/10 07:51:46;;;;;;;15.13;10.95;;;;;;;;;;5032997;28;20025;-74
2021/01/10 07:54:12;;;;;;;17.75;11.65;;;;;;;;;;5032981;28;20424;-77
2021/01/10 07:56:38;;;;;;;17.35;11.50;;;;;;;;;;5032961;28;20056;-78
2021/01/10 07:59:15;;;;;;;17.33;11.65;;;;;;;;;;5032686;28;20017;-76
2021/01/10 08:01:48;;;;;;;16.05;11.65;;;;;;;;;;5052110;28;20033;-78
2021/01/10 08:04:30;;;;;;;15.52;11.13;;;;;;;;;;5052407;28;20104;-76
2021/01/10 08:06:59;;;;;;;15.35;11.02;;;;;;;;;;5037015;28;20161;-76
2021/01/10 08:09:33;;;;;;;15.32;11.00;;;;;;;;;;5036678;28;20034;-78
2021/01/10 08:12:01;;;;;;;15.80;11.15;;;;;;;;;;5036656;28;20033;-78
2021/01/10 08:14:27;;;;;;;17.80;12.00;;;;;;;;;;5036691;28;20112;-75
2021/01/10 08:16:53;;;;;;;17.63;11.63;;;;;;;;;;5036600;28;20044;-77
2021/01/10 08:19:20;;;;;;;16.23;11.88;;;;;;;;;;5052076;28;20033;-76
2021/01/10 08:21:46;;;;;;;18.70;12.73;;;;;;;;;;5036529;28;20034;-75
2021/01/10 08:24:14;;;;;;;16.50;11.65;;;;;;;;;;5036575;28;20380;-78
2021/01/10 08:26:41;;;;;;;18.08;12.38;;;;;;;;;;5051940;28;20048;-77
2021/01/10 08:29:08;;;;;;;17.85;12.27;;;;;;;;;;5036525;28;20020;-75
2021/01/10 08:31:34;;;;;;;19.35;13.35;;;;;;;;;;5051818;28;20726;-78
2021/01/10 08:34:00;;;;;;;18.60;12.88;;;;;;;;;;5036385;28;20399;-78
2021/01/10 08:36:27;;;;;;;20.02;13.15;;;;;;;;;;5036303;28;20075;-75
2021/01/10 08:38:58;;;;;;;17.70;12.35;;;;;;;;;;5036190;28;20049;-75
2021/01/10 08:41:34;;;;;;;17.83;12.25;;;;;;;;;;5036243;28;20044;-75
2021/01/10 08:44:01;;;;;;;17.98;12.52;;;;;;;;;;5051442;28;20033;-75
2021/01/10 08:46:32;;;;;;;18.90;13.48;;;;;;;;;;5051277;28;20536;-75
2021/01/10 08:48:58;;;;;;;20.08;14.10;;;;;;;;;;5051496;28;20076;-74
2021/01/10 08:51:34;;;;;;;18.73;12.77;;;;;;;;;;5036504;28;20408;-75
2021/01/10 08:54:01;;;;;;;17.42;12.43;;;;;;;;;;5036003;28;20033;-75
2021/01/10 08:56:29;;;;;;;20.23;13.25;;;;;;;;;;5036028;28;20021;-75
2021/01/10 08:58:56;;;;;;;21.23;13.75;;;;;;;;;;5051395;28;20037;-75
2021/01/10 09:01:23;;;;;;;21.75;14.30;;;;;;;;;;5035879;28;20025;-78
2021/01/10 09:03:59;;;;;;;20.88;14.15;;;;;;;;;;5051168;28;20038;-77
2021/01/10 09:06:26;;;;;;;21.77;14.88;;;;;;;;;;5051072;28;20032;-75
2021/01/10 09:08:55;;;;;;;21.80;14.00;;;;;;;;;;5051264;28;20453;-75
2021/01/10 09:11:23;;;;;;;20.08;14.35;;;;;;;;;;5034623;28;20105;-75
2021/01/10 09:13:50;;;;;;;21.50;14.60;;;;;;;;;;5035623;28;20455;-79
2021/01/10 09:16:17;;;;;;;22.08;14.27;;;;;;;;;;5051008;28;20022;-75
2021/01/10 09:18:47;;;;;;;21.25;14.57;;;;;;;;;;5050997;28;20458;-75
2021/01/10 09:21:14;;;;;;;23.08;15.45;;;;;;;;;;5035531;28;20022;-78
2021/01/10 09:23:47;;;;;;;21.00;14.18;;;;;;;;;;5050882;28;20052;-75
2021/01/10 09:26:43;;;;;;;23.50;15.63;;;;;;;;;;5035542;28;20105;-75
2021/01/10 09:29:19;;;;;;;22.73;15.30;;;;;;;;;;5029787;28;20056;-75
2021/01/10 09:31:47;;;;;;;23.35;15.45;;;;;;;;;;5035174;28;20520;-75
2021/01/10 09:34:13;;;;;;;22.20;14.68;;;;;;;;;;5050678;28;20061;-75
2021/01/10 09:36:39;;;;;;;22.85;15.10;;;;;;;;;;5035321;28;20087;-74
2021/01/10 09:39:06;;;;;;;22.05;14.85;;;;;;;;;;5035124;28;20048;-74
2021/01/10 09:41:49;;;;;;;24.60;15.05;;;;;;;;;;5035155;28;20104;-75
2021/01/10 09:44:15;;;;;;;;;;;;;;;;;;5035693;28;20033;-75
2021/01/10 09:46:43;;;;;;;21.52;14.05;;;;;;;;;;5035066;28;20294;-75
2021/01/10 09:49:30;;;;;;;21.13;14.88;;;;;;;;;;5050384;28;20079;-75
2021/01/10 09:51:57;;;;;;;20.13;13.55;;;;;;;;;;5034959;28;20022;-75
2021/01/10 09:54:24;;;;;;;20.55;13.80;;;;;;;;;;5035052;28;20018;-75
2021/01/10 09:56:50;;;;;;;19.52;13.55;;;;;;;;;;5034968;28;20036;-78
2021/01/10 09:59:35;;;;;;;22.02;14.48;;;;;;;;;;5034886;28;20484;-75
2021/01/10 10:02:17;;;;;;;22.52;14.60;;;;;;;;;;5034595;28;20033;-78
2021/01/10 10:04:45;;;;;;;22.63;14.43;;;;;;;;;;5049873;28;20401;-77
2021/01/10 10:07:11;;;;;;;21.35;14.57;;;;;;;;;;5034465;28;20020;-76
2021/01/10 10:09:44;;;;;;;21.27;14.00;;;;;;;;;;5034542;28;20028;-75
2021/01/10 10:12:10;;;;;;;;;;;;;;;;;;5034740;28;20366;-78
2021/01/10 10:14:36;;;;;;;19.65;13.23;;;;;;;;;;5034285;28;20422;-75
2021/01/10 10:17:02;;;;;;;23.70;13.68;;;;;;;;;;5049648;28;20115;-75
2021/01/10 10:19:28;;;;;;;21.63;14.00;;;;;;;;;;5034517;28;20029;-75
2021/01/10 10:21:54;;;;;;;23.15;14.52;;;;;;;;;;5049717;28;20136;-75
2021/01/10 10:24:20;;;;;;;20.77;13.80;;;;;;;;;;5034086;28;20068;-75
2021/01/10 10:26:46;;;;;;;22.55;13.88;;;;;;;;;;5049488;28;20056;-75
2021/01/10 10:29:12;;;;;;;22.23;13.57;;;;;;;;;;5033960;28;20010;-76
2021/01/10 10:31:38;;;;;;;22.10;14.77;;;;;;;;;;5049331;28;20026;-75
2021/01/10 10:34:04;;;;;;;20.67;14.00;;;;;;;;;;5049302;28;20393;-75
2021/01/10 10:36:30;;;;;;;22.23;13.75;;;;;;;;;;5049223;28;20139;-78
2021/01/10 10:38:56;;;;;;;23.60;14.90;;;;;;;;;;5049192;28;20049;-75
2021/01/10 10:41:22;;;;;;;21.30;13.57;;;;;;;;;;5033898;28;20014;-75
2021/01/10 10:43:49;;;;;;;22.33;14.27;;;;;;;;;;5033814;28;20032;-75
2021/01/10 10:46:15;;;;;;;24.05;14.20;;;;;;;;;;5033851;28;20022;-78
2021/01/10 10:48:41;;;;;;;22.90;14.75;;;;;;;;;;5049185;28;20053;-75
2021/01/10 10:51:07;;;;;;;24.10;15.05;;;;;;;;;;5049125;28;20420;-75
2021/01/10 10:53:33;;;;;;;23.20;15.13;;;;;;;;;;5033770;28;20036;-74
2021/01/10 10:55:59;;;;;;;19.73;13.77;;;;;;;;;;5033753;28;20032;-75
2021/01/10 10:58:25;;;;;;;21.38;13.75;;;;;;;;;;5049057;28;20033;-74
2021/01/10 11:00:52;;;;;;;25.05;14.75;;;;;;;;;;5033576;28;20028;-76
2021/01/10 11:03:19;;;;;;;21.85;14.30;;;;;;;;;;5033401;28;20029;-79
2021/01/10 11:05:46;;;;;;;21.95;14.15;;;;;;;;;;5033423;28;20017;-77
2021/01/10 11:08:12;;;;;;;22.85;15.15;;;;;;;;;;5033462;28;20021;-75
2021/01/10 11:10:38;;;;;;;23.05;14.60;;;;;;;;;;5033451;28;20048;-75
2021/01/10 11:13:05;;;;;;;20.58;13.45;;;;;;;;;;5033238;28;20048;-75
2021/01/10 11:15:31;;;;;;;23.23;13.77;;;;;;;;;;5033420;28;20018;-75
2021/01/10 11:17:58;;;;;;;23.58;14.35;;;;;;;;;;5033222;28;20075;-75
2021/01/10 11:20:24;;;;;;;25.38;15.63;;;;;;;;;;5048658;28;20064;-75
2021/01/10 11:22:50;;;;;;;22.70;14.52;;;;;;;;;;5033246;28;20033;-75
2021/01/10 11:25:16;;;;;;;22.85;14.48;;;;;;;;;;5033279;28;20120;-75
2021/01/10 11:27:42;;;;;;;26.67;16.80;;;;;;;;;;5048707;28;20030;-74
2021/01/10 11:30:08;;;;;;;24.35;15.57;;;;;;;;;;5033277;28;20018;-74
2021/01/10 11:32:34;;;;;;;22.23;14.85;;;;;;;;;;5033221;28;20480;-74
2021/01/10 11:35:01;;;;;;;22.13;14.30;;;;;;;;;;5048143;28;20033;-74
2021/01/10 11:37:27;;;;;;;26.98;16.60;;;;;;;;;;5033023;28;20021;-74
2021/01/10 11:39:53;;;;;;;26.23;16.08;;;;;;;;;;5033163;28;20481;-74
2021/01/10 11:42:20;;;;;;;24.90;15.15;;;;;;;;;;5032913;28;20575;-78
2021/01/10 11:44:46;;;;;;;24.75;15.90;;;;;;;;;;5048090;28;20022;-74
2021/01/10 11:47:12;;;;;;;25.15;16.10;;;;;;;;;;5032831;28;20053;-78
2021/01/10 11:49:38;;;;;;;23.08;15.63;;;;;;;;;;5033005;28;20025;-74
2021/01/10 11:52:04;;;;;;;25.52;16.88;;;;;;;;;;5032951;28;20076;-76
2021/01/10 11:54:30;;;;;;;23.13;15.23;;;;;;;;;;5048294;28;20024;-75
2021/01/10 11:56:56;;;;;;;24.90;15.50;;;;;;;;;;5032862;28;20026;-75
2021/01/10 11:59:22;;;;;;;24.95;15.30;;;;;;;;;;5048086;28;20021;-78
2021/01/10 12:01:48;;;;;;;25.17;16.60;;;;;;;;;;5047961;28;20026;-75
2021/01/10 12:04:14;;;;;;;25.33;16.88;;;;;;;;;;5033055;28;20163;-74
2021/01/10 12:06:41;;;;;;;22.92;15.05;;;;;;;;;;5048048;28;20013;-74
2021/01/10 12:09:10;;;;;;;25.92;17.15;;;;;;;;;;5048209;28;20021;-74
2021/01/10 12:11:36;;;;;;;23.58;15.68;;;;;;;;;;5048214;28;20021;-75
2021/01/10 12:14:03;;;;;;;26.67;17.10;;;;;;;;;;5032697;28;20085;-78
2021/01/10 12:16:29;;;;;;;25.02;16.73;;;;;;;;;;5047964;28;20061;-76
2021/01/10 12:18:55;;;;;;;26.73;16.25;;;;;;;;;;5032717;28;20017;-74
2021/01/10 12:21:21;;;;;;;24.15;16.10;;;;;;;;;;5047889;28;20022;-78
2021/01/10 12:23:47;;;;;;;25.50;16.92;;;;;;;;;;5032742;28;20116;-74
2021/01/10 12:26:14;;;;;;;27.08;16.83;;;;;;;;;;5032642;28;20026;-74
2021/01/10 12:28:40;;;;;;;26.73;16.63;;;;;;;;;;5032935;28;20079;-74
2021/01/10 12:31:06;;;;;;;28.73;17.63;;;;;;;;;;5032599;28;20096;-74
2021/01/10 12:33:33;;;;;;;26.35;17.08;;;;;;;;;;5032526;28;20044;-74
2021/01/10 12:36:00;;;;;;;27.55;17.60;;;;;;;;;;5032558;28;20678;-74
2021/01/10 12:38:26;;;;;;;28.00;18.52;;;;;;;;;;5032292;28;20068;-74
2021/01/10 12:40:52;;;;;;;27.10;17.30;;;;;;;;;;5047532;28;20029;-74
2021/01/10 12:43:18;;;;;;;30.58;18.67;;;;;;;;;;5032267;28;20033;-74
2021/01/10 12:45:44;;;;;;;31.55;18.50;;;;;;;;;;5047878;28;20044;-75
2021/01/10 12:48:10;;;;;;;27.98;18.17;;;;;;;;;;5050601;28;20459;-75
2021/01/10 12:50:37;;;;;;;29.23;18.33;;;;;;;;;;5035837;28;20025;-74
2021/01/10 12:53:03;;;;;;;29.85;18.90;;;;;;;;;;5035939;28;20056;-74
2021/01/10 12:55:29;;;;;;;30.90;18.90;;;;;;;;;;5036023;28;20036;-76
2021/01/10 12:57:55;;;;;;;28.40;18.10;;;;;;;;;;5035990;28;20101;-75
2021/01/10 13:00:21;;;;;;;31.70;18.42;;;;;;;;;;5051370;28;20033;-74
2021/01/10 13:02:47;;;;;;;29.50;19.75;;;;;;;;;;5035781;28;20040;-75
2021/01/10 13:05:15;;;;;;;27.27;17.60;;;;;;;;;;5051352;28;20021;-77
2021/01/10 13:07:47;;;;;;;27.55;16.90;;;;;;;;;;5035885;28;20360;-74
2021/01/10 13:10:13;;;;;;;27.60;17.85;;;;;;;;;;5035817;28;20018;-74
2021/01/10 13:12:39;;;;;;;28.77;18.02;;;;;;;;;;5035718;28;20025;-74
2021/01/10 13:15:05;;;;;;;29.52;17.70;;;;;;;;;;5035715;28;20078;-74
2021/01/10 13:17:31;;;;;;;27.20;17.50;;;;;;;;;;5051055;28;20144;-75
2021/01/10 13:19:57;;;;;;;29.25;18.25;;;;;;;;;;5050769;28;20018;-74
2021/01/10 13:22:27;;;;;;;27.17;17.27;;;;;;;;;;5035249;28;20105;-78
2021/01/10 13:24:54;;;;;;;33.42;18.88;;;;;;;;;;5050646;28;20025;-74
2021/01/10 13:27:21;;;;;;;28.92;17.30;;;;;;;;;;5035183;28;20006;-74
2021/01/10 13:29:47;;;;;;;28.85;18.13;;;;;;;;;;5050726;28;20091;-75
2021/01/10 13:32:14;;;;;;;27.58;17.83;;;;;;;;;;5035349;28;20017;-74
2021/01/10 13:34:40;;;;;;;29.23;18.33;;;;;;;;;;5035217;28;20037;-74
2021/01/10 13:37:06;;;;;;;28.08;17.83;;;;;;;;;;5050496;28;20075;-75
2021/01/10 13:39:32;;;;;;;30.15;18.98;;;;;;;;;;5050414;28;20049;-75
2021/01/10 13:41:58;;;;;;;28.30;17.88;;;;;;;;;;5035085;28;20072;-75
2021/01/10 13:44:29;;;;;;;29.55;17.92;;;;;;;;;;5035131;28;20053;-77
2021/01/10 13:46:55;;;;;;;26.42;17.42;;;;;;;;;;5050504;28;20026;-74
2021/01/10 13:49:21;;;;;;;28.83;17.77;;;;;;;;;;5050265;28;20369;-74
2021/01/10 13:51:47;;;;;;;27.05;17.15;;;;;;;;;;5050157;28;20028;-74
2021/01/10 13:54:13;;;;;;;28.83;18.23;;;;;;;;;;5050074;28;20021;-75
2021/01/10 13:56:42;;;;;;;27.98;17.48;;;;;;;;;;5034681;28;20048;-74
2021/01/10 13:59:09;;;;;;;27.13;17.45;;;;;;;;;;5034385;28;20051;-75
2021/01/10 14:01:37;;;;;;;27.05;17.55;;;;;;;;;;5049929;28;20500;-78
2021/01/10 14:04:03;;;;;;;26.40;17.75;;;;;;;;;;5050063;28;20041;-78
2021/01/10 14:06:29;;;;;;;27.55;18.60;;;;;;;;;;5050066;28;20021;-74
2021/01/10 14:08:57;;;;;;;27.40;17.20;;;;;;;;;;5034525;28;20393;-74
2021/01/10 14:11:24;;;;;;;25.88;17.23;;;;;;;;;;5034361;28;20027;-75
2021/01/10 14:13:51;;;;;;;28.35;18.50;;;;;;;;;;5049674;28;20021;-75
2021/01/10 14:16:21;;;;;;;28.63;17.70;;;;;;;;;;5034250;28;20018;-75
2021/01/10 14:18:48;;;;;;;26.73;17.80;;;;;;;;;;5049873;28;20060;-75
2021/01/10 14:21:26;;;;;;;27.13;17.10;;;;;;;;;;5034403;28;20022;-74
2021/01/10 14:23:53;;;;;;;29.50;17.35;;;;;;;;;;5049692;28;20037;-74